Time;durP1;ratioP1;P1;durP2;ratioP2;P2;SDS_P1;SDS_P2;PMS_P1;PMS_P2;Temp;Humidity;BMP_temperature;BMP_pressure;BME280_temperature;BME280_humidity;BME280_pressure;Samples;Min_cycle;Max_cycle;Signal;HPM_P1;HPM_P2
2022/12/19 00:01:58;;;;;;;66.30;51.17;;;12.60;58.00;;;;;;4948829;28;85030;-50
2022/12/19 00:04:23;;;;;;;66.45;51.22;;;12.50;57.90;;;;;;4952080;28;85598;-48
2022/12/19 00:06:49;;;;;;;65.88;50.50;;;12.50;57.90;;;;;;4949398;28;86532;-51
2022/12/19 00:09:15;;;;;;;68.38;51.72;;;12.50;57.90;;;;;;4943269;28;85645;-52
2022/12/19 00:11:41;;;;;;;66.85;51.33;;;12.50;57.80;;;;;;4942864;28;85340;-52
2022/12/19 00:14:09;;;;;;;67.45;51.58;;;12.50;57.90;;;;;;4946221;28;86202;-50
2022/12/19 00:16:35;;;;;;;67.03;51.22;;;12.40;58.10;;;;;;4949321;28;85275;-51
2022/12/19 00:19:01;;;;;;;66.50;50.85;;;12.50;57.90;;;;;;4951102;28;85629;-49
2022/12/19 00:21:32;;;;;;;66.63;51.03;;;12.50;57.70;;;;;;4947950;28;86553;-50
2022/12/19 00:23:58;;;;;;;67.25;51.17;;;12.50;57.80;;;;;;4966357;28;86080;-52
2022/12/19 00:26:26;;;;;;;67.60;51.15;;;12.50;57.80;;;;;;4952104;28;90621;-48
2022/12/19 00:28:57;;;;;;;66.22;50.95;;;12.50;57.70;;;;;;4948813;28;86255;-49
2022/12/19 00:31:24;;;;;;;66.47;51.10;;;12.50;57.90;;;;;;4955872;28;85603;-48
2022/12/19 00:33:50;;;;;;;66.72;51.17;;;12.50;57.90;;;;;;4959340;28;85718;-49
2022/12/19 00:36:18;;;;;;;66.43;50.53;;;12.50;57.70;;;;;;4940803;28;86834;-52
2022/12/19 00:38:45;;;;;;;66.10;50.92;;;12.50;57.70;;;;;;4950652;28;84817;-52
2022/12/19 00:41:14;;;;;;;66.78;50.42;;;12.50;57.60;;;;;;4948641;28;85131;-51
2022/12/19 00:43:40;;;;;;;66.28;50.95;;;12.50;57.60;;;;;;4955152;28;84627;-52
2022/12/19 00:46:08;;;;;;;65.97;50.55;;;12.50;57.60;;;;;;4946351;28;85410;-49
2022/12/19 00:48:35;;;;;;;67.03;51.05;;;12.40;57.60;;;;;;4940674;28;87413;-49
2022/12/19 00:51:07;;;;;;;67.18;50.85;;;12.50;57.60;;;;;;4944531;28;85572;-49
2022/12/19 00:53:33;;;;;;;66.25;50.95;;;12.50;57.60;;;;;;4938991;28;85726;-52
2022/12/19 00:56:04;;;;;;;66.57;50.60;;;12.50;57.50;;;;;;4939581;28;87168;-48
2022/12/19 00:58:30;;;;;;;64.97;50.00;;;12.50;57.50;;;;;;4940887;28;85594;-52
2022/12/19 01:00:56;;;;;;;65.95;50.20;;;12.40;57.40;;;;;;4947465;28;86093;-51
2022/12/19 01:03:22;;;;;;;66.30;50.45;;;12.40;57.40;;;;;;4944342;28;84794;-53
2022/12/19 01:05:50;;;;;;;64.85;49.80;;;12.40;57.50;;;;;;4940632;28;85846;-50
2022/12/19 01:08:18;;;;;;;65.75;51.03;;;12.40;57.70;;;;;;4938807;28;86147;-52
2022/12/19 01:10:46;;;;;;;67.07;50.63;;;12.40;57.50;;;;;;4955774;28;85077;-50
2022/12/19 01:13:12;;;;;;;64.85;49.88;;;12.40;57.40;;;;;;4948864;28;85455;-51
2022/12/19 01:15:42;;;;;;;66.30;50.13;;;12.40;57.50;;;;;;4951436;28;86458;-51
2022/12/19 01:18:09;;;;;;;66.40;50.97;;;12.40;57.50;;;;;;4938091;28;85221;-52
2022/12/19 01:20:41;;;;;;;65.50;50.38;;;12.40;57.40;;;;;;4950712;28;87225;-50
2022/12/19 01:23:08;;;;;;;66.68;50.78;;;12.40;57.40;;;;;;4938527;28;84954;-52
2022/12/19 01:25:36;;;;;;;66.57;50.63;;;12.40;57.40;;;;;;4955889;28;85712;-50
2022/12/19 01:28:03;;;;;;;66.88;51.20;;;12.40;57.40;;;;;;4946557;28;86339;-52
2022/12/19 01:30:29;;;;;;;68.88;50.53;;;12.40;57.30;;;;;;4954656;28;87848;-53
2022/12/19 01:32:55;;;;;;;65.63;50.05;;;12.40;57.40;;;;;;4949434;28;85159;-51
2022/12/19 01:35:21;;;;;;;66.53;50.45;;;12.40;57.50;;;;;;4944871;28;84976;-51
2022/12/19 01:37:48;;;;;;;64.82;49.95;;;12.30;57.40;;;;;;4960885;28;85707;-50
2022/12/19 01:40:14;;;;;;;65.05;50.40;;;12.40;57.40;;;;;;4956335;28;84738;-52
2022/12/19 01:42:39;;;;;;;66.07;50.28;;;12.40;57.40;;;;;;4958943;28;86916;-52
2022/12/19 01:45:08;;;;;;;66.57;50.67;;;12.40;57.40;;;;;;4948507;28;84846;-52
2022/12/19 01:48:01;;;;;;;65.78;50.17;;;12.30;57.70;;;;;;4954626;28;85266;-51
2022/12/19 01:50:49;;;;;;;65.40;50.15;;;12.30;57.50;;;;;;4952932;28;86730;-54
2022/12/19 01:53:15;;;;;;;65.85;50.45;;;12.30;57.40;;;;;;4938245;28;85665;-48
2022/12/19 01:55:43;;;;;;;64.85;49.95;;;12.30;57.40;;;;;;4952440;28;85347;-51
2022/12/19 01:58:11;;;;;;;65.57;50.35;;;12.30;57.30;;;;;;4942902;28;85448;-51
2022/12/19 02:00:38;;;;;;;66.90;50.25;;;12.40;57.40;;;;;;4946877;28;90340;-52
2022/12/19 02:03:15;;;;;;;65.57;50.10;;;12.30;57.40;;;;;;4951268;28;85031;-49
2022/12/19 02:05:42;;;;;;;64.18;49.55;;;12.30;57.40;;;;;;4949597;28;86343;-54
2022/12/19 02:08:08;;;;;;;65.95;50.35;;;12.30;57.40;;;;;;4944068;28;89011;-52
2022/12/19 02:10:34;;;;;;;64.55;50.17;;;12.30;57.40;;;;;;4958747;28;85286;-53
2022/12/19 02:12:59;;;;;;;65.95;51.17;;;12.30;57.30;;;;;;4937658;28;85666;-50
2022/12/19 02:15:30;;;;;;;65.18;50.10;;;12.30;57.40;;;;;;4947780;28;87583;-52
2022/12/19 02:18:14;;;;;;;66.30;50.35;;;12.30;57.90;;;;;;4944885;28;85344;-51
2022/12/19 02:21:25;;;;;;;65.55;50.22;;;12.30;57.30;;;;;;4936827;28;90942;-51
2022/12/19 02:24:25;;;;;;;64.78;49.80;;;12.30;57.30;;;;;;4942288;28;86338;-50
2022/12/19 02:26:59;;;;;;;63.72;49.35;;;12.30;57.30;;;;;;4943974;28;84746;-51
2022/12/19 02:29:57;;;;;;;64.18;49.35;;;12.30;57.30;;;;;;4947234;28;85290;-52
2022/12/19 02:32:33;;;;;;;64.80;49.67;;;12.30;57.40;;;;;;4955027;28;85382;-54
2022/12/19 02:35:11;;;;;;;64.65;49.45;;;12.30;57.40;;;;;;4957267;28;85027;-57
2022/12/19 02:37:47;;;;;;;64.95;50.13;;;12.30;57.50;;;;;;4937863;28;85587;-51
2022/12/19 02:40:22;;;;;;;63.78;49.50;;;12.30;57.40;;;;;;4949426;28;86429;-50
2022/12/19 02:42:53;;;;;;;66.35;50.53;;;12.30;57.30;;;;;;4940596;28;85311;-49
2022/12/19 02:45:20;;;;;;;64.55;49.90;;;12.20;57.30;;;;;;4944264;28;85682;-48
2022/12/19 02:47:47;;;;;;;64.75;49.90;;;12.20;57.40;;;;;;4943752;28;87601;-52
2022/12/19 02:50:12;;;;;;;64.90;50.25;;;12.30;57.40;;;;;;4944235;28;85112;-49
2022/12/19 02:52:38;;;;;;;64.43;49.75;;;12.30;57.40;;;;;;4948054;28;86162;-49
2022/12/19 02:55:09;;;;;;;64.60;49.95;;;12.30;57.40;;;;;;4941313;28;87358;-50
2022/12/19 02:57:50;;;;;;;65.03;49.67;;;12.20;57.40;;;;;;4947494;28;84987;-50
2022/12/19 03:00:25;;;;;;;64.10;49.80;;;12.30;57.30;;;;;;4940803;28;85024;-49
2022/12/19 03:03:11;;;;;;;64.55;49.53;;;12.30;57.40;;;;;;4938689;28;88890;-49
2022/12/19 03:05:36;;;;;;;65.45;49.92;;;12.30;57.40;;;;;;4946143;28;90545;-51
2022/12/19 03:08:05;;;;;;;65.43;50.42;;;12.20;57.40;;;;;;4953887;28;86193;-53
2022/12/19 03:10:48;;;;;;;64.53;50.03;;;12.30;57.30;;;;;;4947496;28;84657;-49
2022/12/19 03:13:23;;;;;;;63.78;49.72;;;12.20;57.40;;;;;;4946302;28;86852;-53
2022/12/19 03:15:50;;;;;;;64.38;50.10;;;12.20;57.40;;;;;;4949622;28;85111;-52
2022/12/19 03:18:16;;;;;;;64.95;49.95;;;12.20;57.40;;;;;;4932632;28;87289;-50
2022/12/19 03:20:53;;;;;;;65.55;50.25;;;12.20;57.40;;;;;;4942437;28;87705;-51
2022/12/19 03:23:19;;;;;;;65.18;49.72;;;12.20;58.00;;;;;;4939564;28;89744;-48
2022/12/19 03:25:59;;;;;;;65.30;49.83;;;12.20;57.40;;;;;;4946739;28;85808;-49
2022/12/19 03:28:48;;;;;;;63.60;49.15;;;12.20;57.40;;;;;;4950080;28;85870;-49
2022/12/19 03:31:17;;;;;;;63.95;49.38;;;12.20;57.30;;;;;;4945006;28;85798;-51
2022/12/19 03:33:46;;;;;;;64.60;49.45;;;12.20;57.40;;;;;;4936527;28;91791;-52
2022/12/19 03:36:17;;;;;;;64.95;50.15;;;12.20;57.30;;;;;;4943807;28;87112;-51
2022/12/19 03:38:44;;;;;;;63.58;49.28;;;12.20;57.40;;;;;;4945219;28;86668;-50
2022/12/19 03:41:11;;;;;;;64.80;49.28;;;12.20;57.40;;;;;;4945625;28;84696;-49
2022/12/19 03:43:41;;;;;;;64.80;50.00;;;12.20;57.40;;;;;;4942576;28;85727;-50
2022/12/19 03:46:23;;;;;;;64.03;49.33;;;12.20;57.40;;;;;;4951727;28;86560;-49
2022/12/19 03:48:51;;;;;;;63.78;49.67;;;12.20;57.40;;;;;;4946770;28;85287;-50
2022/12/19 03:51:17;;;;;;;63.92;49.80;;;12.20;57.50;;;;;;4954640;28;85337;-51
2022/12/19 03:53:56;;;;;;;63.25;49.05;;;12.20;57.60;;;;;;4949119;28;92604;-51
2022/12/19 03:56:52;;;;;;;64.85;49.63;;;12.10;57.60;;;;;;4953672;28;84761;-53
2022/12/19 03:59:30;;;;;;;64.07;49.47;;;12.20;57.70;;;;;;4955149;28;85942;-48
2022/12/19 04:01:56;;;;;;;64.85;49.28;;;12.10;57.70;;;;;;4949210;28;86613;-51
2022/12/19 04:04:25;;;;;;;64.55;49.70;;;12.20;57.70;;;;;;4953767;28;85394;-53
2022/12/19 04:06:51;;;;;;;65.00;49.08;;;12.20;57.60;;;;;;4954635;28;85028;-49
2022/12/19 04:09:20;;;;;;;63.40;48.97;;;12.20;57.60;;;;;;4959193;28;85552;-50
2022/12/19 04:11:53;;;;;;;64.25;49.20;;;12.20;57.70;;;;;;4956153;28;87605;-53
2022/12/19 04:14:28;;;;;;;63.58;49.17;;;12.20;57.60;;;;;;4955396;28;85547;-48
2022/12/19 04:17:12;;;;;;;63.85;48.97;;;12.20;57.60;;;;;;4956923;28;85893;-51
2022/12/19 04:19:52;;;;;;;63.50;49.22;;;12.20;57.70;;;;;;4950418;28;85679;-50
2022/12/19 04:22:26;;;;;;;65.10;49.92;;;12.20;57.70;;;;;;4950559;28;85228;-51
2022/12/19 04:24:53;;;;;;;64.68;49.60;;;12.10;57.70;;;;;;4951250;28;85344;-49
2022/12/19 04:27:20;;;;;;;64.00;49.35;;;12.20;57.70;;;;;;4952574;28;86900;-50
2022/12/19 04:29:47;;;;;;;64.43;49.30;;;12.20;57.70;;;;;;4957692;28;85023;-51
2022/12/19 04:32:13;;;;;;;64.72;49.25;;;12.20;57.70;;;;;;4956526;28;85860;-50
2022/12/19 04:34:39;;;;;;;65.03;49.50;;;12.20;57.70;;;;;;4954185;28;84875;-54
2022/12/19 04:37:05;;;;;;;64.35;49.67;;;12.20;57.70;;;;;;4953802;28;85184;-51
2022/12/19 04:39:31;;;;;;;63.60;48.75;;;12.20;57.70;;;;;;4957271;28;85748;-54
2022/12/19 04:41:57;;;;;;;64.47;49.22;;;12.10;57.80;;;;;;4952697;28;85212;-51
2022/12/19 04:44:23;;;;;;;63.17;49.03;;;12.10;57.90;;;;;;4956021;28;91530;-53
2022/12/19 04:46:48;;;;;;;63.88;49.17;;;12.10;57.90;;;;;;4963826;28;85336;-50
2022/12/19 04:49:14;;;;;;;64.65;49.70;;;12.10;57.90;;;;;;4949750;28;89457;-54
2022/12/19 04:51:39;;;;;;;63.80;49.25;;;12.20;57.90;;;;;;4952877;28;90876;-50
2022/12/19 04:54:05;;;;;;;64.38;50.13;;;12.20;57.80;;;;;;4934027;28;85634;-52
2022/12/19 04:56:31;;;;;;;64.65;49.28;;;12.10;57.80;;;;;;4953414;28;88084;-50
2022/12/19 04:58:58;;;;;;;64.82;49.50;;;12.10;57.90;;;;;;4956684;28;85591;-49
2022/12/19 05:01:23;;;;;;;64.15;49.13;;;12.10;58.00;;;;;;4939113;28;85667;-51
2022/12/19 05:03:50;;;;;;;63.53;49.10;;;12.10;58.00;;;;;;4945678;28;88097;-48
2022/12/19 05:06:17;;;;;;;63.70;48.95;;;12.10;58.00;;;;;;4944764;28;84896;-51
2022/12/19 05:08:43;;;;;;;64.95;49.92;;;12.10;58.00;;;;;;4958401;28;86135;-52
2022/12/19 05:11:11;;;;;;;66.97;49.80;;;12.10;58.10;;;;;;4949665;28;86742;-51
2022/12/19 05:13:37;;;;;;;64.32;49.30;;;12.10;58.10;;;;;;4941815;28;86104;-52
2022/12/19 05:16:05;;;;;;;64.25;49.80;;;12.10;58.10;;;;;;4961048;28;84637;-52
2022/12/19 05:18:32;;;;;;;63.25;48.75;;;12.10;58.10;;;;;;4946325;28;85438;-49
2022/12/19 05:20:58;;;;;;;64.00;49.13;;;12.10;58.70;;;;;;4943115;28;85536;-50
2022/12/19 05:23:24;;;;;;;65.90;49.83;;;12.10;58.10;;;;;;4951285;28;86227;-51
2022/12/19 05:25:49;;;;;;;63.88;49.30;;;12.10;58.20;;;;;;4945691;28;90250;-51
2022/12/19 05:28:16;;;;;;;63.92;49.20;;;12.10;58.20;;;;;;4944327;28;85066;-50
2022/12/19 05:30:42;;;;;;;63.88;49.15;;;12.10;58.20;;;;;;4936003;28;87085;-49
2022/12/19 05:33:08;;;;;;;64.10;49.13;;;12.10;58.30;;;;;;4937563;28;85937;-50
2022/12/19 05:35:34;;;;;;;63.85;49.20;;;12.10;58.20;;;;;;4951042;28;85416;-50
2022/12/19 05:38:00;;;;;;;63.28;48.53;;;12.10;58.20;;;;;;4944360;28;90776;-49
2022/12/19 05:40:26;;;;;;;64.65;49.85;;;12.10;58.30;;;;;;4943011;28;85243;-52
2022/12/19 05:42:52;;;;;;;64.70;49.05;;;12.10;58.20;;;;;;4938361;28;86679;-52
2022/12/19 05:45:17;;;;;;;65.85;49.50;;;12.10;58.60;;;;;;4944762;28;85644;-51
2022/12/19 05:47:46;;;;;;;64.15;48.85;;;12.10;58.20;;;;;;4948453;28;84810;-54
2022/12/19 05:50:14;;;;;;;64.60;49.03;;;12.10;58.20;;;;;;4955191;28;85383;-50
2022/12/19 05:52:39;;;;;;;64.47;49.97;;;12.10;58.20;;;;;;4941835;28;86133;-51
2022/12/19 05:55:06;;;;;;;63.35;48.95;;;12.10;58.30;;;;;;4943770;28;85202;-51
2022/12/19 05:57:33;;;;;;;64.68;49.55;;;12.10;58.30;;;;;;4940785;28;85767;-49
2022/12/19 05:59:58;;;;;;;63.78;48.78;;;12.10;58.30;;;;;;4942489;28;85523;-50
2022/12/19 06:02:25;;;;;;;64.70;49.38;;;12.10;58.40;;;;;;4940433;28;85544;-52
2022/12/19 06:04:51;;;;;;;64.13;48.97;;;12.10;58.40;;;;;;4941524;28;85348;-51
2022/12/19 06:07:17;;;;;;;64.25;49.17;;;12.10;59.10;;;;;;4943604;28;86288;-52
2022/12/19 06:09:42;;;;;;;66.05;49.97;;;12.10;58.80;;;;;;4945835;28;85215;-54
2022/12/19 06:12:08;;;;;;;64.82;49.13;;;12.10;58.70;;;;;;4946113;28;84679;-51
2022/12/19 06:14:34;;;;;;;65.85;49.90;;;12.10;59.00;;;;;;4939814;28;85807;-49
2022/12/19 06:16:59;;;;;;;65.10;49.88;;;12.10;59.20;;;;;;4944298;28;86952;-53
2022/12/19 06:19:25;;;;;;;66.65;49.55;;;12.10;59.50;;;;;;4943737;28;88947;-49
2022/12/19 06:21:51;;;;;;;71.30;50.45;;;12.10;59.80;;;;;;4935740;28;86228;-50
2022/12/19 06:24:16;;;;;;;67.10;49.92;;;12.10;60.10;;;;;;4943112;28;84842;-50
2022/12/19 06:26:42;;;;;;;66.53;50.20;;;12.10;60.30;;;;;;4938730;28;85584;-50
2022/12/19 06:29:08;;;;;;;66.10;50.03;;;12.10;60.20;;;;;;4943283;28;86076;-51
2022/12/19 06:31:34;;;;;;;67.20;50.75;;;12.10;60.30;;;;;;4935277;28;85202;-54
2022/12/19 06:33:59;;;;;;;70.03;50.85;;;12.10;60.10;;;;;;4937325;28;85004;-53
2022/12/19 06:36:28;;;;;;;71.88;50.55;;;12.20;60.10;;;;;;4936423;28;85055;-49
2022/12/19 06:38:56;;;;;;;74.00;54.15;;;12.10;60.00;;;;;;4947254;28;87370;-49
2022/12/19 06:44:10;;;;;;;74.53;54.47;;;12.00;61.40;;;;;;4952476;28;86728;-50
2022/12/19 06:46:36;;;;;;;75.63;54.67;;;12.00;61.70;;;;;;4928551;28;88578;-50
2022/12/19 06:49:02;;;;;;;78.63;53.13;;;12.10;61.50;;;;;;4949697;28;85836;-50
2022/12/19 06:51:28;;;;;;;72.13;53.08;;;12.10;61.30;;;;;;4958253;28;85388;-50
2022/12/19 06:53:54;;;;;;;75.18;53.63;;;12.20;61.00;;;;;;4941050;28;85179;-54
2022/12/19 06:56:20;;;;;;;92.70;69.38;;;12.20;60.80;;;;;;4938853;28;86222;-50
2022/12/19 06:58:46;;;;;;;92.35;66.95;;;12.30;60.80;;;;;;4934916;28;90065;-49
2022/12/19 07:01:35;;;;;;;85.30;63.35;;;12.30;60.80;;;;;;4944332;28;85624;-50
2022/12/19 07:04:01;;;;;;;80.82;60.22;;;12.30;60.80;;;;;;4942417;28;88334;-53
2022/12/19 07:06:27;;;;;;;80.82;59.58;;;12.40;60.70;;;;;;4942126;28;85772;-49
2022/12/19 07:08:52;;;;;;;82.05;59.72;;;12.40;60.60;;;;;;4942664;28;88816;-52
2022/12/19 07:11:18;;;;;;;85.70;60.65;;;12.30;60.70;;;;;;4951264;28;85141;-49
2022/12/19 07:13:44;;;;;;;82.07;59.40;;;12.30;60.80;;;;;;4947147;28;85206;-50
2022/12/19 07:16:09;;;;;;;83.07;59.03;;;12.30;60.90;;;;;;4951163;28;85843;-50
2022/12/19 07:18:38;;;;;;;80.18;57.38;;;12.30;60.90;;;;;;4947446;28;87638;-50
2022/12/19 07:21:06;;;;;;;77.07;56.58;;;12.30;60.80;;;;;;4950451;28;85215;-53
2022/12/19 07:23:33;;;;;;;78.28;56.67;;;12.30;60.80;;;;;;4943604;28;85794;-50
2022/12/19 07:25:59;;;;;;;76.63;56.60;;;12.30;61.00;;;;;;4943210;28;85649;-48
2022/12/19 07:28:25;;;;;;;75.45;56.20;;;12.40;61.20;;;;;;4933894;28;86622;-50
2022/12/19 07:30:51;;;;;;;82.80;61.15;;;12.40;61.20;;;;;;4933705;28;86748;-54
2022/12/19 07:33:17;;;;;;;78.53;57.97;;;12.60;60.90;;;;;;4950670;28;85414;-51
2022/12/19 07:35:42;;;;;;;79.40;58.50;;;12.90;60.20;;;;;;4944463;28;85508;-51
2022/12/19 07:38:08;;;;;;;80.88;58.72;;;13.50;58.70;;;;;;4941197;28;86635;-52
2022/12/19 07:40:34;;;;;;;80.50;58.58;;;14.10;57.40;;;;;;4942459;28;86427;-54
2022/12/19 07:43:01;;;;;;;77.93;57.58;;;14.60;56.30;;;;;;4959222;28;85127;-51
2022/12/19 07:45:28;;;;;;;84.03;57.90;;;15.00;55.20;;;;;;4944982;28;85953;-50
2022/12/19 07:47:54;;;;;;;74.95;55.78;;;15.30;54.40;;;;;;4956263;28;85327;-49
2022/12/19 07:50:20;;;;;;;78.72;57.05;;;15.70;53.70;;;;;;4936015;28;85822;-51
2022/12/19 07:52:46;;;;;;;77.97;55.63;;;16.00;52.70;;;;;;4946590;28;85479;-51
2022/12/19 07:55:12;;;;;;;80.65;56.85;;;16.10;52.20;;;;;;4928723;28;86700;-50
2022/12/19 07:57:38;;;;;;;77.75;56.17;;;16.00;52.40;;;;;;4940550;28;85811;-49
2022/12/19 08:00:05;;;;;;;75.88;55.17;;;16.00;52.40;;;;;;4945660;28;85191;-50
2022/12/19 08:02:31;;;;;;;78.38;54.80;;;16.00;52.50;;;;;;4938169;28;85886;-51
2022/12/19 08:04:56;;;;;;;77.55;55.17;;;16.10;52.60;;;;;;4937959;28;87548;-49
2022/12/19 08:07:22;;;;;;;75.20;54.45;;;16.00;52.60;;;;;;4941300;28;86223;-53
2022/12/19 08:09:48;;;;;;;76.07;54.38;;;16.00;52.70;;;;;;4953506;28;85243;-51
2022/12/19 08:12:13;;;;;;;75.70;53.40;;;16.10;52.90;;;;;;4954815;28;90197;-54
2022/12/19 08:14:39;;;;;;;76.05;53.55;;;16.10;53.10;;;;;;4935401;28;86004;-49
2022/12/19 08:17:04;;;;;;;78.15;54.30;;;16.10;53.20;;;;;;4932330;28;87903;-51
2022/12/19 08:19:30;;;;;;;74.53;53.42;;;16.10;53.40;;;;;;4945739;28;91761;-52
2022/12/19 08:21:56;;;;;;;75.85;53.03;;;16.10;53.50;;;;;;4937163;28;86144;-52
2022/12/19 08:24:21;;;;;;;77.70;53.40;;;16.10;53.30;;;;;;4934652;28;86433;-50
2022/12/19 08:26:47;;;;;;;74.88;52.90;;;16.10;53.20;;;;;;4948619;28;85922;-48
2022/12/19 08:29:12;;;;;;;73.00;52.63;;;16.10;53.20;;;;;;4950009;28;86510;-53
2022/12/19 08:31:38;;;;;;;78.53;53.28;;;16.10;53.20;;;;;;4947186;28;85490;-50
2022/12/19 08:34:04;;;;;;;75.68;53.42;;;16.10;53.20;;;;;;4934248;28;86325;-52
2022/12/19 08:36:29;;;;;;;81.97;53.13;;;16.00;53.40;;;;;;4945311;28;85799;-49
2022/12/19 08:38:55;;;;;;;82.47;53.53;;;16.00;53.70;;;;;;4951943;28;85984;-52
2022/12/19 08:41:22;;;;;;;73.88;52.55;;;16.00;53.80;;;;;;4951543;28;91379;-50
2022/12/19 08:43:50;;;;;;;77.55;53.03;;;16.00;54.10;;;;;;4949926;28;85616;-50
2022/12/19 08:46:16;;;;;;;77.45;52.53;;;16.00;54.30;;;;;;4946646;28;86087;-53
2022/12/19 08:48:42;;;;;;;79.70;52.25;;;16.10;54.10;;;;;;4936894;28;86366;-50
2022/12/19 08:51:11;;;;;;;79.70;52.63;;;16.10;54.40;;;;;;4930789;28;89554;-47
2022/12/19 08:53:38;;;;;;;79.97;52.95;;;16.10;54.50;;;;;;4944605;28;87316;-53
2022/12/19 08:56:09;;;;;;;77.93;53.03;;;16.20;54.30;;;;;;4934207;28;85514;-57
2022/12/19 08:58:35;;;;;;;83.40;52.97;;;16.20;54.10;;;;;;4935796;28;85897;-57
2022/12/19 09:01:03;;;;;;;77.28;52.53;;;16.20;54.10;;;;;;4942883;28;89076;-55
2022/12/19 09:03:31;;;;;;;81.55;52.58;;;16.20;54.10;;;;;;4937879;28;92123;-57
2022/12/19 09:05:58;;;;;;;77.40;52.10;;;16.20;54.20;;;;;;4944080;28;85728;-56
2022/12/19 09:08:24;;;;;;;79.07;52.53;;;16.20;54.30;;;;;;4948261;28;85993;-51
2022/12/19 09:10:55;;;;;;;77.15;52.35;;;16.20;54.20;;;;;;4942238;28;85453;-52
2022/12/19 09:13:21;;;;;;;78.78;52.72;;;16.20;54.40;;;;;;4933014;28;86558;-53
2022/12/19 09:15:46;;;;;;;74.28;51.83;;;16.20;54.70;;;;;;4936864;28;86271;-52
2022/12/19 09:18:12;;;;;;;79.38;52.38;;;16.30;54.60;;;;;;4939760;28;86054;-50
2022/12/19 09:20:38;;;;;;;80.90;52.50;;;16.40;54.40;;;;;;4947306;28;85636;-55
2022/12/19 09:23:03;;;;;;;78.40;52.17;;;16.50;54.40;;;;;;4939180;28;90109;-51
2022/12/19 09:25:29;;;;;;;75.85;52.15;;;16.50;54.20;;;;;;4950542;28;86454;-51
2022/12/19 09:27:54;;;;;;;76.88;52.15;;;16.60;54.10;;;;;;4945736;28;86594;-52
2022/12/19 09:30:20;;;;;;;77.00;52.78;;;16.60;54.00;;;;;;4928432;28;85922;-53
2022/12/19 09:32:46;;;;;;;78.05;52.10;;;16.70;53.90;;;;;;4941714;28;86505;-49
2022/12/19 09:35:12;;;;;;;80.82;52.67;;;16.80;53.80;;;;;;4945939;28;85507;-48
2022/12/19 09:37:37;;;;;;;78.53;52.30;;;16.80;53.70;;;;;;4946788;28;88347;-53
2022/12/19 09:40:03;;;;;;;76.68;52.42;;;16.80;53.50;;;;;;4947910;28;87186;-54
2022/12/19 09:42:35;;;;;;;80.10;52.28;;;16.80;53.50;;;;;;4936423;28;86457;-54
2022/12/19 09:45:10;;;;;;;79.43;52.08;;;16.80;53.70;;;;;;4936713;28;87477;-57
2022/12/19 09:47:39;;;;;;;75.47;51.92;;;16.80;53.50;;;;;;4943313;28;85921;-54
2022/12/19 09:50:28;;;;;;;79.07;52.42;;;16.90;53.60;;;;;;4944121;28;86006;-56
2022/12/19 09:53:01;;;;;;;77.72;52.40;;;16.90;53.60;;;;;;4938721;28;86611;-54
2022/12/19 09:55:38;;;;;;;77.45;52.65;;;17.00;53.40;;;;;;4940698;28;87104;-57
2022/12/19 09:58:33;;;;;;;77.15;51.63;;;17.00;53.40;;;;;;4948469;28;85266;-49
2022/12/19 10:01:04;;;;;;;77.53;52.35;;;17.00;53.30;;;;;;4943695;28;85423;-52
2022/12/19 10:03:36;;;;;;;78.32;52.10;;;17.00;53.30;;;;;;4953900;28;85846;-55
2022/12/19 10:06:18;;;;;;;76.85;52.03;;;17.00;53.30;;;;;;4939532;28;87327;-54
2022/12/19 10:08:44;;;;;;;76.78;52.35;;;16.90;53.50;;;;;;4932164;28;86530;-54
2022/12/19 10:11:16;;;;;;;75.97;51.88;;;16.90;53.90;;;;;;4938244;28;87001;-55
2022/12/19 10:14:09;;;;;;;77.35;52.22;;;16.90;53.90;;;;;;4944538;28;87664;-52
2022/12/19 10:16:53;;;;;;;76.40;52.00;;;16.90;53.80;;;;;;4936681;28;85239;-55
2022/12/19 10:19:39;;;;;;;78.15;52.03;;;16.90;54.00;;;;;;4950405;28;87159;-56
2022/12/19 10:22:23;;;;;;;76.18;52.20;;;16.90;54.00;;;;;;4946213;28;85852;-56
2022/12/19 10:25:26;;;;;;;76.95;51.78;;;17.00;54.00;;;;;;4950489;28;85450;-56
2022/12/19 10:28:03;;;;;;;75.28;51.67;;;17.10;53.80;;;;;;4943120;28;87350;-55
2022/12/19 10:30:34;;;;;;;75.25;51.65;;;17.10;53.80;;;;;;4951933;28;85992;-56
2022/12/19 10:33:16;;;;;;;77.20;51.90;;;17.10;53.70;;;;;;4952952;28;85694;-53
2022/12/19 10:35:43;;;;;;;;;;;17.10;53.70;;;;;;4945401;28;85737;-51
2022/12/19 10:38:08;;;;;;;75.03;51.55;;;17.10;53.70;;;;;;4954888;28;85317;-52
2022/12/19 10:40:46;;;;;;;76.03;52.08;;;17.10;53.50;;;;;;4945762;28;85331;-49
2022/12/19 10:43:25;;;;;;;76.57;51.78;;;17.20;53.40;;;;;;4945265;28;85763;-54
2022/12/19 10:45:56;;;;;;;76.60;51.75;;;17.20;53.40;;;;;;4938145;28;85548;-52
2022/12/19 10:48:23;;;;;;;75.80;52.00;;;17.20;53.40;;;;;;4939108;28;85769;-54
2022/12/19 10:50:49;;;;;;;78.28;51.65;;;17.20;53.30;;;;;;4945257;28;86428;-54
2022/12/19 10:53:15;;;;;;;76.35;51.42;;;17.20;53.30;;;;;;4942200;28;85513;-54
2022/12/19 10:55:43;;;;;;;76.30;52.17;;;17.10;53.30;;;;;;4940111;28;88156;-54
2022/12/19 10:58:27;;;;;;;77.05;51.95;;;17.10;53.50;;;;;;4946835;28;85742;-51
2022/12/19 11:01:11;;;;;;;78.20;52.75;;;17.10;53.50;;;;;;4947506;28;87065;-54
2022/12/19 11:03:38;;;;;;;75.43;51.85;;;17.20;53.50;;;;;;4950440;28;85534;-53
2022/12/19 11:06:05;;;;;;;77.88;52.17;;;17.20;53.50;;;;;;4935586;28;88058;-56
2022/12/19 11:08:35;;;;;;;77.03;52.35;;;17.20;53.50;;;;;;4944459;28;86505;-51
2022/12/19 11:11:04;;;;;;;76.32;52.00;;;17.20;53.60;;;;;;4935691;28;86957;-53
2022/12/19 11:13:33;;;;;;;75.72;52.22;;;17.20;53.60;;;;;;4941584;28;86102;-53
2022/12/19 11:16:00;;;;;;;76.32;52.15;;;17.20;53.60;;;;;;4932975;28;87006;-60
2022/12/19 11:18:46;;;;;;;76.57;52.17;;;17.10;53.70;;;;;;4949607;28;85921;-56
2022/12/19 11:21:28;;;;;;;75.20;51.83;;;17.10;53.70;;;;;;4951535;28;85317;-52
2022/12/19 11:24:04;;;;;;;75.78;52.00;;;17.20;53.70;;;;;;4936679;28;85874;-53
2022/12/19 11:26:32;;;;;;;75.28;51.42;;;17.10;53.70;;;;;;4940755;28;86481;-50
2022/12/19 11:29:17;;;;;;;75.30;52.08;;;17.20;53.90;;;;;;4935332;28;91144;-53
2022/12/19 11:31:44;;;;;;;75.93;51.90;;;17.10;54.80;;;;;;4942820;28;87205;-55
2022/12/19 11:34:15;;;;;;;75.43;52.08;;;17.20;55.00;;;;;;4942700;28;87040;-55
2022/12/19 11:36:48;;;;;;;76.75;51.78;;;17.20;54.80;;;;;;4954258;28;85577;-53
2022/12/19 11:39:21;;;;;;;82.70;52.17;;;17.10;54.70;;;;;;4950979;28;85517;-54
2022/12/19 11:41:59;;;;;;;77.07;52.17;;;17.10;55.00;;;;;;4961784;28;85350;-54
2022/12/19 11:44:32;;;;;;;77.85;52.13;;;17.10;55.20;;;;;;4930208;28;90994;-55
2022/12/19 11:47:24;;;;;;;77.47;52.10;;;17.10;55.10;;;;;;4938173;28;86774;-52
2022/12/19 11:49:57;;;;;;;;;;;17.10;55.30;;;;;;4935827;28;86815;-52
2022/12/19 11:53:00;;;;;;;76.32;52.25;;;17.10;55.30;;;;;;4937577;28;85944;-51
2022/12/19 11:55:38;;;;;;;77.13;52.47;;;17.10;55.40;;;;;;4941185;28;86155;-55
2022/12/19 11:58:04;;;;;;;77.97;52.55;;;16.90;55.40;;;;;;4938933;28;85670;-55
2022/12/19 12:00:32;;;;;;;77.30;52.75;;;17.00;55.40;;;;;;4934782;28;86916;-53
2022/12/19 12:03:24;;;;;;;78.15;52.97;;;17.10;55.00;;;;;;4932836;28;86754;-51
2022/12/19 12:05:53;;;;;;;78.25;52.58;;;17.20;54.90;;;;;;4937105;28;85674;-52
2022/12/19 12:08:24;;;;;;;78.05;52.80;;;17.20;54.70;;;;;;4932425;28;86257;-57
2022/12/19 12:10:58;;;;;;;;;;;17.30;54.50;;;;;;4937251;28;87822;-58
2022/12/19 12:14:08;;;;;;;76.47;52.50;;;17.30;54.40;;;;;;4942246;28;87202;-55
2022/12/19 12:16:53;;;;;;;78.05;52.63;;;17.30;54.40;;;;;;4945497;28;85521;-54
2022/12/19 12:19:26;;;;;;;76.45;52.45;;;17.30;54.50;;;;;;4930530;28;86883;-54
2022/12/19 12:22:10;;;;;;;79.57;52.65;;;17.20;54.70;;;;;;4938600;28;86336;-53
2022/12/19 12:25:00;;;;;;;78.18;52.83;;;17.20;54.50;;;;;;4931687;28;85313;-56
2022/12/19 12:27:51;;;;;;;81.20;52.60;;;17.30;54.50;;;;;;4958550;28;85733;-52
2022/12/19 12:30:21;;;;;;;77.97;52.30;;;17.20;54.40;;;;;;4961459;28;86337;-54
2022/12/19 12:33:05;;;;;;;77.75;52.17;;;17.30;54.40;;;;;;4944752;28;86038;-54
2022/12/19 12:35:35;;;;;;;78.88;52.53;;;17.30;54.20;;;;;;4956656;28;89748;-55
2022/12/19 12:38:41;;;;;;;79.28;52.25;;;17.20;54.20;;;;;;4945102;28;85513;-54
2022/12/19 12:44:21;;;;;;;78.03;51.75;;;17.30;54.00;;;;;;4941828;28;89121;-55
2022/12/19 12:47:08;;;;;;;76.78;52.05;;;17.30;54.00;;;;;;4952649;28;86099;-54
2022/12/19 12:49:45;;;;;;;77.25;52.05;;;17.30;54.00;;;;;;4953214;28;86730;-53
2022/12/19 12:52:16;;;;;;;76.78;51.83;;;17.30;54.00;;;;;;4957104;28;86238;-51